Time;durP1;ratioP1;P1;durP2;ratioP2;P2;SDS_P1;SDS_P2;PMS_P1;PMS_P2;Temp;Humidity;BMP_temperature;BMP_pressure;BME280_temperature;BME280_humidity;BME280_pressure;Samples;Min_cycle;Max_cycle;Signal;HPM_P1;HPM_P2
2022/09/20 00:01:31;;;;;;;14.40;10.72;;;;;;;10.22;95.27;100204.90;1632083;86;25862;-77
2022/09/20 00:04:03;;;;;;;14.15;9.93;;;;;;;10.19;95.26;100207.95;1648861;84;25844;-78
2022/09/20 00:06:31;;;;;;;12.33;10.00;;;;;;;10.15;95.36;100199.99;1625453;86;25961;-77
2022/09/20 00:09:00;;;;;;;16.87;10.30;;;;;;;10.15;95.38;100213.37;1652383;85;27475;-77
2022/09/20 00:11:30;;;;;;;15.00;10.88;;;;;;;10.13;95.36;100206.05;1658331;85;25522;-77
2022/09/20 00:13:59;;;;;;;12.25;9.20;;;;;;;10.12;95.45;100208.90;1659498;85;26464;-78
2022/09/20 00:16:30;;;;;;;14.93;10.30;;;;;;;10.10;95.40;100211.75;1624798;86;25782;-78
2022/09/20 00:18:58;;;;;;;13.58;9.93;;;;;;;10.08;95.34;100208.44;1646244;86;25844;-77
2022/09/20 00:21:28;;;;;;;13.15;9.20;;;;;;;10.07;95.26;100211.61;1623074;86;27531;-78
2022/09/20 00:23:58;;;;;;;14.47;9.35;;;;;;;10.03;95.43;100209.02;1610443;87;26425;-77
2022/09/20 00:26:27;;;;;;;13.77;10.70;;;;;;;10.03;95.33;100218.88;1598063;89;25828;-78
2022/09/20 00:28:54;;;;;;;18.67;16.77;;;;;;;10.00;95.20;100209.41;1640376;86;25796;-77
2022/09/20 00:31:20;;;;;;;18.77;11.68;;;;;;;9.96;95.38;100209.48;1644796;86;25855;-77
2022/09/20 00:36:32;;;;;;;18.17;11.00;;;;;;;9.93;95.24;100212.53;1651754;84;25796;-77
2022/09/20 00:39:02;;;;;;;13.55;10.53;;;;;;;9.87;95.22;100211.97;1662573;84;25879;-77
2022/09/20 00:41:30;;;;;;;10.88;8.85;;;;;;;9.85;95.21;100215.34;1650386;84;26707;-77
2022/09/20 00:43:59;;;;;;;13.13;10.05;;;;;;;9.83;95.20;100212.03;1648593;85;26562;-78
2022/09/20 00:46:34;;;;;;;12.40;10.53;;;;;;;9.81;95.35;100219.42;1646646;86;27490;-77
2022/09/20 00:49:17;;;;;;;15.18;10.80;;;;;;;9.79;95.44;100213.44;1652898;84;26398;-78
2022/09/20 00:51:48;;;;;;;12.93;10.00;;;;;;;9.78;95.43;100221.13;1663034;85;25818;-78
2022/09/20 00:54:18;;;;;;;18.35;10.55;;;;;;;9.78;95.48;100218.45;1637865;87;26099;-77
2022/09/20 00:56:45;;;;;;;14.47;10.80;;;;;;;9.74;95.45;100219.86;1658028;85;26416;-78
2022/09/20 00:59:29;;;;;;;17.20;9.65;;;;;;;9.74;95.53;100220.36;1643910;86;28493;-77
2022/09/20 01:02:11;;;;;;;14.90;10.10;;;;;;;9.72;95.49;100223.73;1627239;86;26108;-77
2022/09/20 01:04:40;;;;;;;13.32;8.43;;;;;;;9.70;95.51;100217.25;1654723;85;26994;-77
2022/09/20 01:07:10;;;;;;;11.83;7.83;;;;;;;9.70;95.45;100219.09;1648216;85;25971;-78
2022/09/20 01:09:36;;;;;;;14.07;7.10;;;;;;;9.69;95.50;100213.41;1666492;85;25829;-78
2022/09/20 01:12:08;;;;;;;10.08;8.03;;;;;;;9.66;95.60;100215.97;1632096;86;28269;-77
2022/09/20 01:14:35;;;;;;;12.73;7.62;;;;;;;9.66;95.50;100211.96;1650538;84;25758;-77
2022/09/20 01:17:04;;;;;;;11.93;7.60;;;;;;;9.65;95.40;100212.13;1654388;84;25997;-77
2022/09/20 01:19:48;;;;;;;12.47;7.72;;;;;;;9.63;95.46;100214.17;1660585;84;25796;-78
2022/09/20 01:22:53;;;;;;;8.58;6.78;;;;;;;9.62;95.46;100214.70;1651653;84;25895;-77
2022/09/20 01:25:52;;;;;;;11.97;7.58;;;;;;;9.61;95.42;100212.20;1606379;88;27466;-77
2022/09/20 01:28:18;;;;;;;12.58;7.92;;;;;;;9.59;95.30;100211.56;1657894;84;26341;-77
2022/09/20 01:31:02;;;;;;;10.85;7.58;;;;;;;9.52;95.29;100217.34;1659027;84;25337;-77
2022/09/20 01:34:08;;;;;;;11.50;7.00;;;;;;;9.49;95.41;100217.73;1674394;84;25956;-78
2022/09/20 01:36:46;;;;;;;13.85;7.08;;;;;;;9.44;95.35;100217.45;1649683;84;26719;-77
2022/09/20 01:39:30;;;;;;;11.50;7.83;;;;;;;9.39;95.40;100222.03;1639452;85;27697;-78
2022/09/20 01:42:10;;;;;;;10.03;7.80;;;;;;;9.36;95.64;100217.58;1646383;85;25793;-78
2022/09/20 01:44:54;;;;;;;11.90;7.07;;;;;;;9.34;95.82;100218.58;1677255;84;25800;-77
2022/09/20 01:48:00;;;;;;;14.38;7.95;;;;;;;9.34;95.81;100224.45;1648730;84;25859;-77
2022/09/20 01:50:38;;;;;;;10.23;7.55;;;;;;;9.36;95.94;100229.61;1595794;85;26564;-77
2022/09/20 01:53:40;;;;;;;11.88;7.60;;;;;;;9.34;96.03;100226.59;1647050;86;27571;-77
2022/09/20 01:56:44;;;;;;;14.28;9.18;;;;;;;9.36;96.17;100221.59;1647010;85;26581;-77
2022/09/20 01:59:19;;;;;;;13.98;8.15;;;;;;;9.37;96.30;100224.06;1652202;85;26611;-76
2022/09/20 02:02:10;;;;;;;9.88;7.62;;;;;;;9.38;96.33;100223.06;1658269;85;26610;-78
2022/09/20 02:05:10;;;;;;;14.30;8.95;;;;;;;9.40;96.39;100230.88;1650686;85;26563;-77
2022/09/20 02:08:05;;;;;;;12.50;8.65;;;;;;;9.40;96.27;100228.21;1654424;84;27556;-77
2022/09/20 02:11:09;;;;;;;10.23;7.08;;;;;;;9.38;96.28;100225.73;1646402;85;26467;-78
2022/09/20 02:13:56;;;;;;;13.28;8.55;;;;;;;9.34;96.18;100222.59;1663643;84;26562;-77
2022/09/20 02:16:48;;;;;;;9.90;7.47;;;;;;;9.33;96.35;100228.97;1650353;86;26434;-77
2022/09/20 02:20:03;;;;;;;15.10;8.75;;;;;;;9.36;96.28;100230.94;1659109;84;25843;-77
2022/09/20 02:22:40;;;;;;;13.08;8.63;;;;;;;9.33;96.06;100234.81;1613054;87;27472;-78
2022/09/20 02:25:43;;;;;;;15.10;8.25;;;;;;;9.31;96.06;100237.69;1643537;85;25818;-77
2022/09/20 02:28:34;;;;;;;14.33;8.30;;;;;;;9.32;95.97;100241.19;1590156;86;25939;-79
2022/09/20 02:31:33;;;;;;;11.40;7.53;;;;;;;9.27;95.90;100244.92;1665996;84;25956;-78
2022/09/20 02:34:11;;;;;;;12.55;8.20;;;;;;;9.23;95.92;100253.00;1666329;85;25817;-78
2022/09/20 02:37:12;;;;;;;9.85;7.70;;;;;;;9.18;95.99;100247.37;1640598;86;27439;-79
2022/09/20 02:40:08;;;;;;;14.75;8.20;;;;;;;9.18;96.03;100252.71;1641947;86;25727;-78
2022/09/20 02:42:56;;;;;;;10.20;7.95;;;;;;;9.17;96.08;100255.89;1650152;86;25816;-78
2022/09/20 02:45:40;;;;;;;12.68;8.38;;;;;;;9.17;96.27;100250.54;1661381;85;25986;-78
2022/09/20 02:48:07;;;;;;;9.30;7.40;;;;;;;9.19;96.29;100263.23;1646296;85;26153;-78
2022/09/20 02:51:02;;;;;;;12.73;8.38;;;;;;;9.21;96.40;100261.70;1662505;85;28292;-79
2022/09/20 02:53:46;;;;;;;9.35;7.10;;;;;;;9.24;96.44;100269.34;1611947;86;25814;-78
2022/09/20 02:56:31;;;;;;;13.35;8.60;;;;;;;9.24;96.42;100266.16;1647050;86;25873;-79
2022/09/20 02:59:31;;;;;;;12.30;7.70;;;;;;;9.25;96.38;100266.50;1617729;87;26780;-78
2022/09/20 03:02:19;;;;;;;13.55;7.60;;;;;;;9.25;96.35;100266.50;1651196;84;25797;-79
2022/09/20 03:05:13;;;;;;;11.97;8.20;;;;;;;9.26;96.37;100270.81;1651033;84;27458;-79
2022/09/20 03:08:09;;;;;;;12.25;7.92;;;;;;;9.24;96.38;100267.50;1651915;84;25835;-78
2022/09/20 03:11:03;;;;;;;11.73;8.20;;;;;;;9.25;96.35;100265.16;1634553;86;25811;-78
2022/09/20 03:14:02;;;;;;;10.82;7.25;;;;;;;9.24;96.29;100269.34;1648495;84;26517;-79
2022/09/20 03:16:52;;;;;;;10.25;7.78;;;;;;;9.22;96.24;100256.17;1588237;84;25892;-79
2022/09/20 03:19:33;;;;;;;13.53;8.30;;;;;;;9.21;96.26;100271.89;1645368;86;27484;-79
2022/09/20 03:22:27;;;;;;;;;;;;;;;9.22;96.25;100267.36;1635109;86;25868;-79
2022/09/20 03:25:26;;;;;;;12.00;7.55;;;;;;;9.20;96.24;100271.56;1648714;85;25816;-79
2022/09/20 03:28:39;;;;;;;12.98;8.70;;;;;;;9.18;96.40;100276.77;1650016;84;25841;-79
2022/09/20 03:31:29;;;;;;;13.20;9.40;;;;;;;9.16;96.42;100286.31;1630855;86;25758;-79
2022/09/20 03:34:01;;;;;;;12.57;10.17;;;;;;;9.13;96.40;100271.16;1636106;86;27553;-78
2022/09/20 03:36:51;;;;;;;13.10;10.15;;;;;;;9.16;96.40;100277.45;1645953;85;25846;-78
2022/09/20 03:39:57;;;;;;;14.40;10.87;;;;;;;9.17;96.34;100280.47;1648990;85;25846;-77
2022/09/20 03:42:29;;;;;;;14.68;11.55;;;;;;;9.17;96.24;100275.92;1609671;85;25819;-78
2022/09/20 03:45:25;;;;;;;11.95;9.33;;;;;;;9.18;96.16;100268.75;1625105;86;25763;-78
2022/09/20 03:48:17;;;;;;;11.25;8.00;;;;;;;9.16;96.01;100270.78;1626046;86;27608;-79
2022/09/20 03:51:13;;;;;;;12.63;7.97;;;;;;;9.11;96.03;100271.86;1646854;86;25902;-79
2022/09/20 03:54:03;;;;;;;12.78;7.80;;;;;;;9.07;95.94;100274.05;1645159;85;25909;-78
2022/09/20 03:56:38;;;;;;;12.13;7.23;;;;;;;9.03;96.16;100276.77;1644754;85;26492;-78
2022/09/20 03:59:16;;;;;;;10.45;7.42;;;;;;;9.04;96.37;100279.78;1615307;85;25985;-77
2022/09/20 04:02:08;;;;;;;10.08;7.42;;;;;;;9.04;96.45;100277.11;1645529;84;28325;-78
2022/09/20 04:04:52;;;;;;;13.25;8.43;;;;;;;9.08;96.52;100283.73;1586303;85;26555;-78
2022/09/20 04:08:12;;;;;;;10.55;7.15;;;;;;;9.08;96.55;100278.90;1605079;87;25832;-78
2022/09/20 04:11:02;;;;;;;12.18;7.33;;;;;;;9.09;96.56;100285.88;1646581;84;25803;-77
2022/09/20 04:13:58;;;;;;;12.53;7.30;;;;;;;9.09;96.55;100289.39;1648851;85;25819;-78
2022/09/20 04:16:58;;;;;;;8.90;7.42;;;;;;;9.09;96.57;100290.73;1651227;84;27550;-78
2022/09/20 04:19:42;;;;;;;9.58;8.10;;;;;;;9.11;96.67;100294.04;1607299;86;26461;-78
2022/09/20 04:22:09;;;;;;;12.15;7.65;;;;;;;9.12;96.56;100286.86;1586931;88;25763;-78
2022/09/20 04:24:53;;;;;;;10.03;8.13;;;;;;;9.14;96.57;100295.52;1608255;87;26352;-77
2022/09/20 04:27:39;;;;;;;12.93;8.10;;;;;;;9.15;96.52;100298.53;1647436;84;25616;-78
2022/09/20 04:30:26;;;;;;;11.57;7.78;;;;;;;9.13;96.41;100301.89;1645319;86;28300;-78
2022/09/20 04:33:02;;;;;;;10.18;7.12;;;;;;;9.12;96.47;100292.20;1605074;87;25565;-78
2022/09/20 04:38:40;;;;;;;10.00;7.45;;;;;;;9.11;96.52;100311.41;1617293;86;26594;-78
2022/09/20 04:41:28;;;;;;;12.60;8.20;;;;;;;9.09;96.67;100312.10;1649934;84;25978;-78
2022/09/20 04:44:34;;;;;;;11.03;8.00;;;;;;;9.11;96.82;100311.94;1604396;87;27554;-78
2022/09/20 04:47:23;;;;;;;13.38;7.83;;;;;;;9.12;96.86;100318.92;1644978;85;25899;-78
2022/09/20 04:50:13;;;;;;;12.82;8.60;;;;;;;9.12;96.86;100322.94;1651099;84;26498;-78
2022/09/20 04:53:16;;;;;;;12.85;8.80;;;;;;;9.12;96.88;100326.94;1646733;84;25830;-77
2022/09/20 04:56:02;;;;;;;15.35;9.23;;;;;;;9.12;97.01;100331.78;1645706;84;25867;-78
2022/09/20 04:58:48;;;;;;;12.37;9.85;;;;;;;9.12;97.13;100334.95;1648086;84;27482;-78
2022/09/20 05:01:54;;;;;;;14.28;10.03;;;;;;;9.12;97.21;100342.97;1644895;84;25894;-78
2022/09/20 05:04:44;;;;;;;15.50;11.30;;;;;;;9.12;97.29;100343.81;1648686;84;26123;-77
2022/09/20 05:07:55;;;;;;;16.70;10.78;;;;;;;9.11;97.32;100350.16;1648234;86;25765;-77
2022/09/20 05:10:39;;;;;;;14.98;10.98;;;;;;;9.10;97.56;100348.52;1648775;85;25900;-77
2022/09/20 05:13:33;;;;;;;14.95;11.10;;;;;;;9.12;97.72;100356.33;1651723;85;27496;-77
2022/09/20 05:16:14;;;;;;;13.60;10.40;;;;;;;9.14;97.88;100360.48;1617886;86;26191;-78
2022/09/20 05:18:55;;;;;;;17.42;11.08;;;;;;;9.16;97.83;100362.47;1651012;85;26118;-77
2022/09/20 05:21:54;;;;;;;19.07;11.38;;;;;;;9.16;97.83;100358.95;1644930;85;25776;-77
2022/09/20 05:24:47;;;;;;;15.13;9.98;;;;;;;9.18;97.87;100366.28;1650883;85;25834;-77
2022/09/20 05:27:44;;;;;;;13.75;10.55;;;;;;;9.16;97.96;100369.65;1649674;85;27467;-78
2022/09/20 05:30:36;;;;;;;15.05;10.20;;;;;;;9.15;97.96;100372.81;1640292;85;25785;-78
2022/09/20 05:33:22;;;;;;;14.65;9.90;;;;;;;9.15;98.14;100375.48;1615290;86;25765;-77
2022/09/20 05:36:23;;;;;;;13.62;10.05;;;;;;;9.17;98.30;100376.13;1626232;86;25881;-77
2022/09/20 05:39:07;;;;;;;17.50;9.35;;;;;;;9.19;98.31;100377.31;1650904;84;25325;-77
2022/09/20 05:41:51;;;;;;;12.75;9.70;;;;;;;9.22;98.49;100379.59;1615879;86;27605;-77
2022/09/20 05:44:46;;;;;;;14.80;10.82;;;;;;;9.21;98.39;100373.95;1644997;85;26490;-77
2022/09/20 05:47:30;;;;;;;19.35;11.15;;;;;;;9.26;98.56;100388.91;1644287;84;25863;-77
2022/09/20 05:50:19;;;;;;;14.63;10.55;;;;;;;9.29;98.67;100389.89;1648795;84;26518;-77
2022/09/20 05:53:02;;;;;;;16.97;10.75;;;;;;;9.29;98.61;100392.06;1557356;88;25949;-78
2022/09/20 05:55:59;;;;;;;15.75;11.50;;;;;;;9.30;98.73;100402.25;1624858;85;28295;-77
2022/09/20 05:59:01;;;;;;;16.90;11.78;;;;;;;9.33;98.86;100400.53;1654232;84;25956;-77
2022/09/20 06:02:04;;;;;;;20.62;13.95;;;;;;;9.37;98.96;100399.68;1653263;84;25874;-78
2022/09/20 06:04:39;;;;;;;16.37;12.47;;;;;;;9.40;99.03;100400.63;1626071;86;26643;-77
2022/09/20 06:07:17;;;;;;;18.65;14.55;;;;;;;9.45;99.20;100404.43;1648911;85;26444;-78
2022/09/20 06:10:15;;;;;;;20.35;14.98;;;;;;;9.47;99.12;100399.73;1607251;85;28290;-78
2022/09/20 06:12:56;;;;;;;19.10;15.18;;;;;;;9.48;98.97;100393.34;1644976;84;26501;-77
2022/09/20 06:15:45;;;;;;;22.67;15.63;;;;;;;9.51;99.09;100401.52;1646754;85;26063;-77
2022/09/20 06:18:39;;;;;;;22.13;16.50;;;;;;;9.54;99.27;100393.14;1612019;86;25897;-78
2022/09/20 06:21:47;;;;;;;23.75;17.30;;;;;;;9.58;99.30;100395.77;1627376;86;25896;-78
2022/09/20 06:24:24;;;;;;;24.65;18.15;;;;;;;9.60;99.38;100396.41;1653387;85;27451;-77
2022/09/20 06:26:54;;;;;;;30.97;23.05;;;;;;;9.60;99.40;100397.20;1653953;84;25831;-78
2022/09/20 06:29:26;;;;;;;29.27;21.45;;;;;;;9.63;99.48;100402.20;1648345;85;26495;-77
2022/09/20 06:31:52;;;;;;;26.02;20.80;;;;;;;9.66;99.51;100413.87;1651294;85;26694;-78
2022/09/20 06:34:19;;;;;;;22.67;19.70;;;;;;;9.68;99.54;100411.01;1641779;85;25754;-77
2022/09/20 06:42:53;;;;;;;27.95;19.10;;;;;;;9.81;99.83;100407.17;1643118;84;25762;-78
2022/09/20 06:45:20;;;;;;;27.67;21.33;;;;;;;9.85;99.81;100411.13;1652934;84;26572;-77
2022/09/20 06:47:46;;;;;;;26.07;21.75;;;;;;;9.91;99.93;100410.37;1649128;85;26447;-78
2022/09/20 06:50:16;;;;;;;28.98;21.87;;;;;;;9.95;100.00;100416.51;1647393;85;27447;-78
2022/09/20 06:52:44;;;;;;;24.07;18.12;;;;;;;10.01;100.00;100409.56;1644564;84;25896;-79
2022/09/20 06:55:19;;;;;;;21.93;18.32;;;;;;;10.04;100.00;100415.39;1651101;84;25730;-78
2022/09/20 06:57:46;;;;;;;24.77;18.70;;;;;;;10.09;100.00;100410.81;1648122;84;25791;-79
2022/09/20 07:00:14;;;;;;;21.12;18.57;;;;;;;10.14;100.00;100418.32;1639079;85;26087;-78
2022/09/20 07:02:42;;;;;;;19.57;16.35;;;;;;;10.19;100.00;100408.69;1644371;85;28248;-78
2022/09/20 07:05:16;;;;;;;20.55;16.40;;;;;;;10.27;100.00;100411.25;1643363;84;25895;-78
2022/09/20 07:07:43;;;;;;;19.00;15.80;;;;;;;10.33;100.00;100414.50;1649820;84;26333;-80
2022/09/20 07:10:11;;;;;;;22.02;17.80;;;;;;;10.39;100.00;100416.41;1614478;86;26381;-79
2022/09/20 07:12:37;;;;;;;16.25;14.55;;;;;;;10.47;100.00;100424.85;1609404;86;25991;-79
2022/09/20 07:15:05;;;;;;;16.02;14.33;;;;;;;10.54;100.00;100425.23;1599968;87;27469;-78
2022/09/20 07:17:32;;;;;;;17.62;14.68;;;;;;;10.57;100.00;100430.72;1648429;85;26012;-79
2022/09/20 07:19:59;;;;;;;17.85;15.25;;;;;;;10.59;100.00;100432.19;1647161;85;25576;-79
2022/09/20 07:22:27;;;;;;;17.70;15.00;;;;;;;10.63;100.00;100440.66;1641755;85;25896;-79
2022/09/20 07:24:53;;;;;;;16.70;15.03;;;;;;;10.68;100.00;100442.27;1644477;85;25800;-78
2022/09/20 07:27:20;;;;;;;19.27;15.78;;;;;;;10.71;100.00;100453.95;1657406;84;28080;-78
2022/09/20 07:29:46;;;;;;;17.77;15.93;;;;;;;10.74;100.00;100457.57;1653644;85;26734;-78
2022/09/20 07:32:14;;;;;;;15.58;13.98;;;;;;;10.76;99.98;100463.56;1651795;85;26501;-78
2022/09/20 07:34:40;;;;;;;17.15;14.50;;;;;;;10.78;99.89;100468.22;1646443;85;25948;-78
2022/09/20 07:37:06;;;;;;;18.92;14.85;;;;;;;10.79;100.00;100477.94;1643560;85;25300;-79
2022/09/20 07:39:33;;;;;;;15.75;14.20;;;;;;;10.79;99.80;100482.79;1649305;84;27600;-78
2022/09/20 07:42:00;;;;;;;16.93;14.83;;;;;;;10.81;99.93;100479.41;1650565;85;25801;-79
2022/09/20 07:44:27;;;;;;;15.40;13.90;;;;;;;10.83;100.00;100485.41;1649848;85;25801;-80
2022/09/20 07:46:57;;;;;;;16.07;14.05;;;;;;;10.85;99.72;100486.55;1649961;84;26700;-78
2022/09/20 07:49:25;;;;;;;;;;;;;;;10.85;99.52;100489.22;1641234;85;25954;-79
2022/09/20 07:51:53;;;;;;;16.15;13.38;;;;;;;10.87;99.64;100495.22;1653676;84;28289;-78
2022/09/20 07:54:20;;;;;;;16.67;13.20;;;;;;;10.90;99.88;100494.02;1652372;84;26334;-79
2022/09/20 07:56:47;;;;;;;16.35;14.13;;;;;;;10.95;99.75;100484.36;1648292;85;25742;-79
2022/09/20 07:59:15;;;;;;;16.20;13.72;;;;;;;11.01;99.85;100480.94;1642626;84;26193;-78
2022/09/20 08:01:42;;;;;;;17.10;15.32;;;;;;;11.11;100.00;100477.92;1645761;85;25932;-79
2022/09/20 08:04:09;;;;;;;16.57;14.65;;;;;;;11.22;100.00;100482.27;1647350;85;26995;-79
2022/09/20 08:06:39;;;;;;;14.95;13.05;;;;;;;11.29;99.98;100485.00;1657753;84;26354;-78
2022/09/20 08:09:07;;;;;;;16.55;14.93;;;;;;;11.35;99.93;100489.58;1649456;85;25544;-79
2022/09/20 08:11:34;;;;;;;14.78;13.28;;;;;;;11.42;100.00;100487.75;1648881;85;25745;-78
2022/09/20 08:14:03;;;;;;;17.92;14.20;;;;;;;11.46;99.72;100492.54;1654699;84;26335;-79
2022/09/20 08:16:31;;;;;;;15.85;14.10;;;;;;;11.52;99.87;100486.92;1656648;85;27963;-79
2022/09/20 08:19:02;;;;;;;17.67;14.55;;;;;;;11.56;99.25;100486.84;1641333;85;25900;-79
2022/09/20 08:21:31;;;;;;;;;;;;;;;11.61;99.42;100487.91;1642315;84;26472;-79
2022/09/20 08:23:58;;;;;;;18.07;16.27;;;;;;;11.68;99.05;100489.83;1641960;84;25814;-79
2022/09/20 08:26:28;;;;;;;19.45;17.40;;;;;;;11.71;98.91;100486.27;1642774;85;25898;-80
2022/09/20 08:28:57;;;;;;;18.35;16.55;;;;;;;11.76;98.86;100485.14;1649537;84;27630;-79
2022/09/20 08:31:27;;;;;;;18.85;15.90;;;;;;;11.79;98.80;100489.29;1648426;84;26406;-79
2022/09/20 08:33:54;;;;;;;17.80;16.05;;;;;;;11.86;98.92;100494.19;1644666;85;26393;-79
2022/09/20 08:36:23;;;;;;;16.55;14.85;;;;;;;11.88;98.34;100493.48;1644292;85;26623;-79
2022/09/20 08:38:51;;;;;;;15.78;14.25;;;;;;;11.88;97.88;100497.00;1657342;84;25844;-80
2022/09/20 08:41:46;;;;;;;15.65;14.00;;;;;;;11.93;97.85;100499.09;1654811;85;27626;-80
2022/09/20 08:44:35;;;;;;;18.92;13.90;;;;;;;11.93;97.39;100503.92;1648171;84;26391;-80
2022/09/20 08:47:10;;;;;;;16.15;14.53;;;;;;;11.93;97.29;100505.27;1650951;85;26061;-80
2022/09/20 08:49:37;;;;;;;15.50;13.90;;;;;;;11.96;97.28;100508.08;1651372;84;26497;-79
2022/09/20 08:52:04;;;;;;;16.97;15.15;;;;;;;11.99;97.24;100503.67;1647600;85;25841;-78
2022/09/20 08:54:33;;;;;;;17.02;14.13;;;;;;;12.01;96.98;100512.34;1658736;84;27620;-78
2022/09/20 08:57:11;;;;;;;15.98;13.50;;;;;;;12.00;96.69;100510.67;1630689;86;25810;-79
2022/09/20 08:59:39;;;;;;;15.65;14.15;;;;;;;12.02;97.03;100520.20;1613816;86;25940;-80
2022/09/20 09:02:16;;;;;;;15.25;13.68;;;;;;;12.06;97.20;100512.06;1639259;85;25789;-79
2022/09/20 09:04:44;;;;;;;15.68;14.18;;;;;;;12.10;96.92;100516.53;1645443;84;26528;-79
2022/09/20 09:07:14;;;;;;;16.15;14.47;;;;;;;12.13;96.96;100525.52;1646935;84;28564;-80
2022/09/20 09:09:43;;;;;;;14.98;13.48;;;;;;;12.16;96.95;100523.28;1646653;84;25796;-79
2022/09/20 09:12:26;;;;;;;17.15;15.25;;;;;;;12.19;96.63;100525.55;1655282;84;25739;-79
2022/09/20 09:15:06;;;;;;;14.95;12.60;;;;;;;12.23;96.65;100520.64;1644646;85;26509;-80
2022/09/20 09:17:34;;;;;;;13.03;11.73;;;;;;;12.26;96.66;100525.08;1613504;85;25876;-79
2022/09/20 09:20:21;;;;;;;13.58;12.18;;;;;;;12.21;96.12;100516.78;1642166;85;27659;-79
2022/09/20 09:23:07;;;;;;;11.63;10.45;;;;;;;12.26;95.89;100530.45;1646880;85;26403;-80
2022/09/20 09:25:39;;;;;;;9.93;8.93;;;;;;;12.29;95.59;100526.55;1648751;84;26409;-80
2022/09/20 09:28:13;;;;;;;10.95;9.95;;;;;;;12.31;95.75;100528.02;1649870;84;25755;-81
2022/09/20 09:30:48;;;;;;;11.22;9.98;;;;;;;12.32;95.75;100522.10;1647363;85;25813;-81
2022/09/20 09:33:29;;;;;;;13.18;10.20;;;;;;;12.35;95.81;100527.92;1647037;84;27452;-81
2022/09/20 09:36:06;;;;;;;10.88;9.60;;;;;;;12.46;95.47;100527.03;1648002;85;25867;-81
2022/09/20 09:38:37;;;;;;;10.58;9.58;;;;;;;12.59;96.18;100523.05;1648190;84;25877;-81
2022/09/20 09:41:08;;;;;;;13.35;11.03;;;;;;;12.73;95.97;100525.58;1647550;84;26372;-81
2022/09/20 09:43:59;;;;;;;10.70;9.70;;;;;;;12.87;96.07;100522.42;1652150;82;25806;31
2022/09/20 09:46:32;;;;;;;10.18;9.18;;;;;;;12.98;96.00;100525.31;1612275;87;27245;-81
2022/09/20 09:49:19;;;;;;;10.82;9.80;;;;;;;13.07;95.30;100535.40;1604305;87;25816;-81
2022/09/20 09:52:03;;;;;;;10.88;9.88;;;;;;;13.13;94.80;100540.79;1666665;85;25789;-82
2022/09/20 09:54:39;;;;;;;10.32;9.38;;;;;;;13.17;93.86;100539.88;1644568;85;25801;-81
2022/09/20 09:57:52;;;;;;;10.40;9.50;;;;;;;13.21;94.29;100534.91;1667656;85;25737;-81
2022/09/20 10:00:21;;;;;;;8.68;7.87;;;;;;;13.27;93.83;100532.23;1615828;87;27465;-79
2022/09/20 10:03:37;;;;;;;9.30;8.35;;;;;;;13.39;94.01;100535.95;1579440;89;26411;-80
2022/09/20 10:06:33;;;;;;;9.58;8.63;;;;;;;13.44;93.30;100536.17;1573833;87;25832;-79
2022/09/20 10:09:11;;;;;;;9.85;8.93;;;;;;;13.54;93.86;100535.74;1605126;87;25920;-80
2022/09/20 10:12:05;;;;;;;8.73;7.92;;;;;;;13.60;93.52;100535.74;1674407;85;26570;-79
2022/09/20 10:14:52;;;;;;;9.23;8.33;;;;;;;13.60;92.68;100538.44;1645161;85;27483;-79
2022/09/20 10:17:33;;;;;;;7.90;7.08;;;;;;;13.53;91.80;100538.14;1652456;85;25748;-81
2022/09/20 10:20:21;;;;;;;10.25;7.35;;;;;;;13.54;92.02;100540.62;1651540;85;25830;-80
2022/09/20 10:23:00;;;;;;;8.15;7.25;;;;;;;13.58;92.01;100537.81;1649808;85;26531;-80
2022/09/20 10:25:38;;;;;;;7.12;5.60;;;;;;;13.65;92.67;100530.58;1651312;85;25356;-80
2022/09/20 10:28:25;;;;;;;6.62;5.12;;;;;;;13.75;92.17;100536.90;1648630;85;28287;-80
2022/09/20 10:31:09;;;;;;;5.83;5.33;;;;;;;13.79;92.01;100538.94;1650399;85;26480;-80
2022/09/20 10:33:50;;;;;;;6.37;5.12;;;;;;;13.81;91.92;100540.90;1650600;85;25955;-80
2022/09/20 10:36:20;;;;;;;;;;;;;;;13.82;91.50;100541.22;1641502;85;25932;-80
2022/09/20 10:38:58;;;;;;;7.17;5.10;;;;;;;13.84;91.00;100539.15;1665494;85;25950;-81
2022/09/20 10:44:33;;;;;;;6.40;5.80;;;;;;;13.84;91.11;100536.97;1662814;85;25762;-81
2022/09/20 10:47:20;;;;;;;7.58;6.10;;;;;;;13.91;91.43;100535.94;1638504;85;33150;-81
2022/09/20 10:50:14;;;;;;;5.25;4.58;;;;;;;14.10;92.41;100538.78;1647992;85;26292;-81
2022/09/20 10:53:02;;;;;;;4.97;4.53;;;;;;;14.23;91.44;100534.71;1665988;85;25844;-81
2022/09/20 10:55:49;;;;;;;4.55;4.15;;;;;;;14.34;91.42;100541.66;1602433;85;28369;-81
2022/09/20 10:58:51;;;;;;;4.37;3.98;;;;;;;14.39;90.07;100532.41;1642690;85;25805;-81
2022/09/20 11:01:41;;;;;;;3.80;3.50;;;;;;;14.37;90.13;100542.56;1657003;85;26470;-82
2022/09/20 11:04:21;;;;;;;4.92;3.42;;;;;;;14.41;89.61;100541.64;1654765;85;25776;-81
2022/09/20 11:07:31;;;;;;;3.37;2.87;;;;;;;14.49;89.37;100546.27;1611631;87;26057;-83
2022/09/20 11:10:06;;;;;;;3.90;3.05;;;;;;;14.59;88.65;100549.33;1613829;87;27494;-81
2022/09/20 11:12:41;;;;;;;4.72;3.22;;;;;;;14.59;87.89;100546.64;1606779;86;25796;-81
2022/09/20 11:15:22;;;;;;;3.52;3.22;;;;;;;14.64;87.89;100541.45;1627225;86;25732;-81
2022/09/20 11:18:23;;;;;;;5.12;3.92;;;;;;;14.74;88.68;100540.12;1599216;87;25777;-80
2022/09/20 11:20:58;;;;;;;3.58;3.27;;;;;;;14.89;88.70;100540.67;1606133;87;25854;-80
2022/09/20 11:23:49;;;;;;;3.90;3.05;;;;;;;14.98;87.71;100538.03;1598815;88;27481;-81
2022/09/20 11:26:52;;;;;;;4.35;2.90;;;;;;;15.04;86.98;100533.95;1579644;89;26561;-82
2022/09/20 11:29:41;;;;;;;2.92;2.72;;;;;;;15.04;86.11;100542.05;1651419;85;25777;-81
2022/09/20 11:32:35;;;;;;;3.87;3.30;;;;;;;15.14;86.50;100536.98;1644328;85;25978;-81
2022/09/20 11:35:16;;;;;;;3.12;2.83;;;;;;;15.13;86.12;100538.05;1654080;85;26781;-80
2022/09/20 11:37:55;;;;;;;3.60;2.87;;;;;;;15.09;84.91;100538.70;1646877;85;28297;-79
2022/09/20 11:40:39;;;;;;;3.25;2.95;;;;;;;15.01;84.60;100541.66;1649459;85;25856;-79
2022/09/20 11:43:08;;;;;;;3.22;2.92;;;;;;;14.95;84.24;100542.53;1647467;85;25905;-80
2022/09/20 11:45:38;;;;;;;3.70;3.40;;;;;;;14.95;83.86;100540.64;1645101;85;25966;-81
2022/09/20 11:48:15;;;;;;;4.03;3.62;;;;;;;14.97;84.49;100545.84;1644845;85;25759;-80
2022/09/20 11:51:22;;;;;;;3.67;3.37;;;;;;;14.98;83.75;100547.48;1641156;85;28339;-80
2022/09/20 11:54:28;;;;;;;2.90;2.70;;;;;;;15.02;83.46;100548.18;1652933;85;25841;-81
2022/09/20 11:56:56;;;;;;;3.95;3.30;;;;;;;15.07;82.35;100542.14;1656525;85;26021;-79
2022/09/20 11:59:31;;;;;;;3.77;3.20;;;;;;;15.16;82.26;100541.64;1623919;87;26039;-80
2022/09/20 12:02:00;;;;;;;4.22;3.83;;;;;;;15.26;82.49;100535.27;1643963;85;25866;-80
2022/09/20 12:04:31;;;;;;;4.62;3.08;;;;;;;15.40;82.78;100538.67;1648742;85;28454;-80
2022/09/20 12:07:17;;;;;;;4.28;2.67;;;;;;;15.51;82.57;100533.95;1659671;85;25879;-80
2022/09/20 12:09:54;;;;;;;2.80;2.35;;;;;;;15.56;82.87;100533.30;1642775;85;25904;-80
2022/09/20 12:12:41;;;;;;;4.12;2.25;;;;;;;15.59;81.44;100535.02;1646545;85;26592;-79
2022/09/20 12:15:27;;;;;;;3.20;2.58;;;;;;;15.57;80.87;100538.47;1640981;85;26588;-81
2022/09/20 12:18:01;;;;;;;3.92;2.25;;;;;;;15.55;80.74;100543.26;1642429;85;27520;-80
2022/09/20 12:20:44;;;;;;;2.20;2.00;;;;;;;15.58;80.16;100529.84;1656934;85;26406;-81
2022/09/20 12:23:57;;;;;;;2.67;2.40;;;;;;;15.67;80.48;100529.88;1664839;85;25859;-80
2022/09/20 12:26:34;;;;;;;3.72;2.83;;;;;;;15.77;80.73;100526.14;1644690;85;25818;-79
2022/09/20 12:29:28;;;;;;;3.95;2.87;;;;;;;15.81;79.81;100528.70;1650203;85;26522;-80
2022/09/20 12:32:01;;;;;;;3.55;2.72;;;;;;;15.80;79.44;100532.47;1659040;85;28107;-80
2022/09/20 12:34:35;;;;;;;3.40;2.65;;;;;;;15.73;78.99;100527.64;1618430;86;25864;-80
2022/09/20 12:37:09;;;;;;;3.15;2.85;;;;;;;15.69;78.39;100531.31;1648172;85;25659;-79
2022/09/20 12:39:38;;;;;;;2.95;2.62;;;;;;;15.64;78.49;100527.09;1658389;85;25839;-79